sensor_id;sensor_type;location;lat;lon;timestamp;noise_LAeq;noise_LA_min;noise_LA_max;noise_LA01;noise_LA95
68599;Laerm;18038;50.166;18.908;2023-02-18T00:02:47;50.33;47.05;67.25;;
68599;Laerm;18038;50.166;18.908;2023-02-18T00:06:11;50.04;47.09;63.25;;
68599;Laerm;18038;50.166;18.908;2023-02-18T00:09:21;50.86;47.22;68.50;;
68599;Laerm;18038;50.166;18.908;2023-02-18T00:12:31;51.52;47.33;67.54;;
68599;Laerm;18038;50.166;18.908;2023-02-18T00:15:38;50.13;47.10;61.36;;
68599;Laerm;18038;50.166;18.908;2023-02-18T00:18:48;51.20;46.95;68.17;;
68599;Laerm;18038;50.166;18.908;2023-02-18T00:21:59;49.35;47.22;64.41;;
68599;Laerm;18038;50.166;18.908;2023-02-18T00:25:05;50.58;47.03;63.46;;
68599;Laerm;18038;50.166;18.908;2023-02-18T00:28:12;54.37;47.27;73.05;;
68599;Laerm;18038;50.166;18.908;2023-02-18T00:31:23;51.68;47.08;74.24;;
68599;Laerm;18038;50.166;18.908;2023-02-18T00:34:33;51.32;47.05;73.83;;
68599;Laerm;18038;50.166;18.908;2023-02-18T00:37:43;54.32;47.26;80.04;;
68599;Laerm;18038;50.166;18.908;2023-02-18T00:40:52;49.57;47.13;64.60;;
68599;Laerm;18038;50.166;18.908;2023-02-18T00:43:59;53.19;47.22;75.05;;
68599;Laerm;18038;50.166;18.908;2023-02-18T00:47:07;51.72;47.28;71.63;;
68599;Laerm;18038;50.166;18.908;2023-02-18T00:50:19;49.14;47.43;63.53;;
68599;Laerm;18038;50.166;18.908;2023-02-18T00:53:29;53.43;47.31;74.87;;
68599;Laerm;18038;50.166;18.908;2023-02-18T00:56:39;51.14;47.99;60.68;;
68599;Laerm;18038;50.166;18.908;2023-02-18T00:59:47;49.47;47.30;64.20;;
68599;Laerm;18038;50.166;18.908;2023-02-18T01:02:53;51.95;47.37;74.04;;
68599;Laerm;18038;50.166;18.908;2023-02-18T01:06:01;49.55;47.35;63.47;;
68599;Laerm;18038;50.166;18.908;2023-02-18T01:09:13;50.95;47.48;68.40;;
68599;Laerm;18038;50.166;18.908;2023-02-18T01:12:20;49.93;47.48;58.37;;
68599;Laerm;18038;50.166;18.908;2023-02-18T01:15:26;49.08;47.24;65.20;;
68599;Laerm;18038;50.166;18.908;2023-02-18T01:18:33;50.08;47.12;69.70;;
68599;Laerm;18038;50.166;18.908;2023-02-18T01:21:39;49.66;47.25;60.38;;
68599;Laerm;18038;50.166;18.908;2023-02-18T01:24:48;49.87;47.15;61.02;;
68599;Laerm;18038;50.166;18.908;2023-02-18T01:27:55;52.78;47.17;74.23;;
68599;Laerm;18038;50.166;18.908;2023-02-18T01:31:07;52.50;47.41;71.49;;
68599;Laerm;18038;50.166;18.908;2023-02-18T01:34:14;52.54;47.56;74.14;;
68599;Laerm;18038;50.166;18.908;2023-02-18T01:37:23;55.84;47.92;80.08;;
68599;Laerm;18038;50.166;18.908;2023-02-18T01:40:32;57.60;47.80;83.23;;
68599;Laerm;18038;50.166;18.908;2023-02-18T01:43:39;54.76;47.77;75.89;;
68599;Laerm;18038;50.166;18.908;2023-02-18T01:46:46;55.50;47.61;78.50;;
68599;Laerm;18038;50.166;18.908;2023-02-18T01:49:53;50.66;47.59;63.96;;
68599;Laerm;18038;50.166;18.908;2023-02-18T01:53:00;49.30;47.07;61.85;;
68599;Laerm;18038;50.166;18.908;2023-02-18T01:56:25;56.00;47.53;78.99;;
68599;Laerm;18038;50.166;18.908;2023-02-18T01:59:38;59.79;47.28;79.03;;
68599;Laerm;18038;50.166;18.908;2023-02-18T02:02:51;50.09;47.15;66.40;;
68599;Laerm;18038;50.166;18.908;2023-02-18T02:06:14;57.73;47.38;80.39;;
68599;Laerm;18038;50.166;18.908;2023-02-18T02:09:30;48.63;47.19;58.07;;
68599;Laerm;18038;50.166;18.908;2023-02-18T02:12:58;48.61;47.20;56.31;;
68599;Laerm;18038;50.166;18.908;2023-02-18T02:16:20;48.93;46.98;59.64;;
68599;Laerm;18038;50.166;18.908;2023-02-18T02:20:12;48.54;47.21;59.40;;
68599;Laerm;18038;50.166;18.908;2023-02-18T02:24:05;52.90;47.08;72.57;;
68599;Laerm;18038;50.166;18.908;2023-02-18T02:27:32;49.94;46.75;65.01;;
68599;Laerm;18038;50.166;18.908;2023-02-18T02:31:25;49.18;47.21;65.13;;
68599;Laerm;18038;50.166;18.908;2023-02-18T02:34:52;48.39;46.87;57.82;;
68599;Laerm;18038;50.166;18.908;2023-02-18T02:38:09;50.38;47.06;66.92;;
68599;Laerm;18038;50.166;18.908;2023-02-18T02:41:36;51.05;46.96;75.04;;
68599;Laerm;18038;50.166;18.908;2023-02-18T02:44:56;49.71;47.11;67.68;;
68599;Laerm;18038;50.166;18.908;2023-02-18T02:48:25;48.99;47.06;57.89;;
68599;Laerm;18038;50.166;18.908;2023-02-18T02:51:46;49.42;46.93;63.31;;
68599;Laerm;18038;50.166;18.908;2023-02-18T02:54:55;48.31;46.62;59.07;;
68599;Laerm;18038;50.166;18.908;2023-02-18T02:58:04;49.08;47.14;68.00;;
68599;Laerm;18038;50.166;18.908;2023-02-18T03:01:33;48.61;47.09;60.33;;
68599;Laerm;18038;50.166;18.908;2023-02-18T03:05:03;50.64;46.97;71.93;;
68599;Laerm;18038;50.166;18.908;2023-02-18T03:08:37;54.20;47.08;77.15;;
68599;Laerm;18038;50.166;18.908;2023-02-18T03:11:59;50.90;47.06;66.72;;
68599;Laerm;18038;50.166;18.908;2023-02-18T03:15:23;49.01;47.19;59.12;;
68599;Laerm;18038;50.166;18.908;2023-02-18T03:18:48;49.50;47.11;68.45;;
68599;Laerm;18038;50.166;18.908;2023-02-18T03:22:04;49.26;47.10;63.96;;
68599;Laerm;18038;50.166;18.908;2023-02-18T03:25:20;50.40;47.18;64.43;;
68599;Laerm;18038;50.166;18.908;2023-02-18T03:28:37;48.72;47.15;57.53;;
68599;Laerm;18038;50.166;18.908;2023-02-18T03:31:52;53.12;47.14;72.61;;
68599;Laerm;18038;50.166;18.908;2023-02-18T03:35:07;52.72;47.43;71.27;;
68599;Laerm;18038;50.166;18.908;2023-02-18T03:38:23;49.17;47.11;60.72;;
68599;Laerm;18038;50.166;18.908;2023-02-18T03:41:43;50.56;47.56;64.97;;
68599;Laerm;18038;50.166;18.908;2023-02-18T03:44:49;55.92;47.39;76.30;;
68599;Laerm;18038;50.166;18.908;2023-02-18T03:47:58;51.81;47.33;70.51;;
68599;Laerm;18038;50.166;18.908;2023-02-18T03:51:16;50.33;47.55;65.27;;
68599;Laerm;18038;50.166;18.908;2023-02-18T03:54:25;49.80;47.17;63.78;;
68599;Laerm;18038;50.166;18.908;2023-02-18T03:57:39;52.02;47.11;75.45;;
68599;Laerm;18038;50.166;18.908;2023-02-18T04:00:45;52.64;47.23;70.28;;
68599;Laerm;18038;50.166;18.908;2023-02-18T04:03:55;51.66;47.33;71.34;;
68599;Laerm;18038;50.166;18.908;2023-02-18T04:07:03;54.63;47.35;80.95;;
68599;Laerm;18038;50.166;18.908;2023-02-18T04:10:22;52.09;47.13;69.03;;
68599;Laerm;18038;50.166;18.908;2023-02-18T04:13:31;51.33;47.15;70.32;;
68599;Laerm;18038;50.166;18.908;2023-02-18T04:16:37;55.02;46.92;76.01;;
68599;Laerm;18038;50.166;18.908;2023-02-18T04:19:44;50.13;46.63;59.93;;
68599;Laerm;18038;50.166;18.908;2023-02-18T04:22:50;50.87;46.74;67.98;;
68599;Laerm;18038;50.166;18.908;2023-02-18T04:25:57;49.18;46.85;57.53;;
68599;Laerm;18038;50.166;18.908;2023-02-18T04:29:06;50.10;47.02;64.23;;
68599;Laerm;18038;50.166;18.908;2023-02-18T04:32:12;49.67;46.94;57.51;;
68599;Laerm;18038;50.166;18.908;2023-02-18T04:35:18;50.70;46.84;69.31;;
68599;Laerm;18038;50.166;18.908;2023-02-18T04:38:25;49.28;46.42;58.55;;
68599;Laerm;18038;50.166;18.908;2023-02-18T04:41:31;49.80;47.00;59.59;;
68599;Laerm;18038;50.166;18.908;2023-02-18T04:44:41;55.97;46.65;75.97;;
68599;Laerm;18038;50.166;18.908;2023-02-18T04:47:49;50.24;46.79;64.92;;
68599;Laerm;18038;50.166;18.908;2023-02-18T04:50:56;49.92;46.38;63.77;;
68599;Laerm;18038;50.166;18.908;2023-02-18T04:54:02;52.17;46.71;68.48;;
68599;Laerm;18038;50.166;18.908;2023-02-18T04:57:09;52.17;46.82;67.90;;
68599;Laerm;18038;50.166;18.908;2023-02-18T05:00:19;49.63;46.64;58.30;;
68599;Laerm;18038;50.166;18.908;2023-02-18T05:03:26;51.75;46.63;76.73;;
68599;Laerm;18038;50.166;18.908;2023-02-18T05:06:33;49.13;46.50;61.38;;
68599;Laerm;18038;50.166;18.908;2023-02-18T05:09:42;51.60;46.66;68.05;;
68599;Laerm;18038;50.166;18.908;2023-02-18T05:12:48;49.73;46.68;59.65;;
68599;Laerm;18038;50.166;18.908;2023-02-18T05:15:57;49.64;46.61;64.23;;
68599;Laerm;18038;50.166;18.908;2023-02-18T05:19:03;48.37;46.29;56.24;;
68599;Laerm;18038;50.166;18.908;2023-02-18T05:22:10;50.69;46.47;65.92;;
68599;Laerm;18038;50.166;18.908;2023-02-18T05:25:16;53.52;47.25;77.87;;
68599;Laerm;18038;50.166;18.908;2023-02-18T05:28:23;50.60;46.57;66.86;;
68599;Laerm;18038;50.166;18.908;2023-02-18T05:31:32;49.55;46.32;65.27;;
68599;Laerm;18038;50.166;18.908;2023-02-18T05:34:41;49.89;46.27;58.05;;
68599;Laerm;18038;50.166;18.908;2023-02-18T05:37:47;49.26;46.41;60.15;;
68599;Laerm;18038;50.166;18.908;2023-02-18T05:40:55;52.01;46.62;72.62;;
68599;Laerm;18038;50.166;18.908;2023-02-18T05:44:01;52.47;46.88;71.43;;
68599;Laerm;18038;50.166;18.908;2023-02-18T05:47:23;52.25;46.61;68.67;;
68599;Laerm;18038;50.166;18.908;2023-02-18T05:50:30;51.36;46.60;65.54;;
68599;Laerm;18038;50.166;18.908;2023-02-18T05:53:37;53.59;46.41;69.60;;
68599;Laerm;18038;50.166;18.908;2023-02-18T05:56:43;50.75;46.52;63.66;;
68599;Laerm;18038;50.166;18.908;2023-02-18T05:59:50;50.83;46.46;72.11;;
68599;Laerm;18038;50.166;18.908;2023-02-18T06:02:58;50.39;46.68;70.00;;
68599;Laerm;18038;50.166;18.908;2023-02-18T06:06:06;51.50;46.81;66.63;;
68599;Laerm;18038;50.166;18.908;2023-02-18T06:09:13;51.13;46.73;61.91;;
68599;Laerm;18038;50.166;18.908;2023-02-18T06:12:20;55.29;47.37;73.62;;
68599;Laerm;18038;50.166;18.908;2023-02-18T06:15:26;54.53;46.80;80.12;;
68599;Laerm;18038;50.166;18.908;2023-02-18T06:18:35;51.37;46.82;63.83;;
68599;Laerm;18038;50.166;18.908;2023-02-18T06:21:41;52.01;46.57;73.46;;
68599;Laerm;18038;50.166;18.908;2023-02-18T06:24:48;53.29;46.69;69.26;;
68599;Laerm;18038;50.166;18.908;2023-02-18T06:27:54;53.14;46.96;67.20;;
68599;Laerm;18038;50.166;18.908;2023-02-18T06:31:01;50.19;46.99;63.18;;
68599;Laerm;18038;50.166;18.908;2023-02-18T06:34:10;55.44;47.10;75.33;;
68599;Laerm;18038;50.166;18.908;2023-02-18T06:37:16;57.57;47.21;79.27;;
68599;Laerm;18038;50.166;18.908;2023-02-18T06:40:22;52.72;47.02;73.41;;
68599;Laerm;18038;50.166;18.908;2023-02-18T06:43:29;54.36;47.66;71.74;;
68599;Laerm;18038;50.166;18.908;2023-02-18T06:46:35;53.64;47.48;74.81;;
68599;Laerm;18038;50.166;18.908;2023-02-18T06:49:45;56.13;47.37;78.75;;
68599;Laerm;18038;50.166;18.908;2023-02-18T06:52:51;51.52;47.11;68.02;;
68599;Laerm;18038;50.166;18.908;2023-02-18T06:55:58;52.78;47.31;72.77;;
68599;Laerm;18038;50.166;18.908;2023-02-18T06:59:04;60.47;47.81;83.33;;
68599;Laerm;18038;50.166;18.908;2023-02-18T07:02:12;65.07;47.31;88.56;;
68599;Laerm;18038;50.166;18.908;2023-02-18T07:05:20;51.78;47.38;69.98;;
68599;Laerm;18038;50.166;18.908;2023-02-18T07:08:27;53.16;47.28;69.28;;
68599;Laerm;18038;50.166;18.908;2023-02-18T07:11:35;51.15;46.92;66.49;;
68599;Laerm;18038;50.166;18.908;2023-02-18T07:14:41;52.65;47.09;72.09;;
68599;Laerm;18038;50.166;18.908;2023-02-18T07:17:47;52.96;47.22;71.83;;
68599;Laerm;18038;50.166;18.908;2023-02-18T07:20:57;52.26;46.89;69.67;;
68599;Laerm;18038;50.166;18.908;2023-02-18T07:24:04;51.64;46.92;67.65;;
68599;Laerm;18038;50.166;18.908;2023-02-18T07:27:11;53.98;46.90;76.41;;
68599;Laerm;18038;50.166;18.908;2023-02-18T07:30:18;52.93;47.30;68.83;;
68599;Laerm;18038;50.166;18.908;2023-02-18T07:33:25;53.85;47.77;72.44;;
68599;Laerm;18038;50.166;18.908;2023-02-18T07:36:34;56.98;47.30;78.85;;
68599;Laerm;18038;50.166;18.908;2023-02-18T07:39:42;51.62;47.29;64.58;;
68599;Laerm;18038;50.166;18.908;2023-02-18T07:42:48;57.84;47.57;77.31;;
68599;Laerm;18038;50.166;18.908;2023-02-18T07:45:55;55.37;47.36;81.68;;
68599;Laerm;18038;50.166;18.908;2023-02-18T07:49:01;54.66;47.18;79.80;;
68599;Laerm;18038;50.166;18.908;2023-02-18T07:52:11;52.73;47.15;71.10;;
68599;Laerm;18038;50.166;18.908;2023-02-18T07:55:17;52.77;47.25;69.11;;
68599;Laerm;18038;50.166;18.908;2023-02-18T07:58:28;53.45;47.50;72.01;;
68599;Laerm;18038;50.166;18.908;2023-02-18T08:01:34;52.20;47.53;63.66;;
68599;Laerm;18038;50.166;18.908;2023-02-18T08:04:41;51.62;47.45;60.67;;
68599;Laerm;18038;50.166;18.908;2023-02-18T08:07:50;52.42;47.26;70.63;;
68599;Laerm;18038;50.166;18.908;2023-02-18T08:11:01;54.00;47.61;73.78;;
68599;Laerm;18038;50.166;18.908;2023-02-18T08:14:21;51.74;47.10;72.78;;
68599;Laerm;18038;50.166;18.908;2023-02-18T08:17:27;52.48;46.77;70.24;;
68599;Laerm;18038;50.166;18.908;2023-02-18T08:20:35;56.55;48.06;80.40;;
68599;Laerm;18038;50.166;18.908;2023-02-18T08:23:46;54.34;47.55;72.52;;
68599;Laerm;18038;50.166;18.908;2023-02-18T08:26:52;51.88;46.96;62.97;;
68599;Laerm;18038;50.166;18.908;2023-02-18T08:30:05;51.21;47.00;68.69;;
68599;Laerm;18038;50.166;18.908;2023-02-18T08:33:14;52.35;47.26;61.83;;
68599;Laerm;18038;50.166;18.908;2023-02-18T08:36:22;52.81;47.97;67.00;;
68599;Laerm;18038;50.166;18.908;2023-02-18T08:39:33;52.33;47.17;66.36;;
68599;Laerm;18038;50.166;18.908;2023-02-18T08:42:42;51.21;47.11;60.33;;
68599;Laerm;18038;50.166;18.908;2023-02-18T08:45:48;53.74;47.89;71.69;;
68599;Laerm;18038;50.166;18.908;2023-02-18T08:48:56;51.78;46.87;60.11;;
68599;Laerm;18038;50.166;18.908;2023-02-18T08:52:02;59.24;47.34;86.54;;
68599;Laerm;18038;50.166;18.908;2023-02-18T08:55:12;55.89;47.05;82.61;;
68599;Laerm;18038;50.166;18.908;2023-02-18T08:58:22;51.78;47.00;69.83;;
68599;Laerm;18038;50.166;18.908;2023-02-18T09:01:29;52.99;47.45;73.30;;
68599;Laerm;18038;50.166;18.908;2023-02-18T09:04:35;51.89;47.23;61.50;;
68599;Laerm;18038;50.166;18.908;2023-02-18T09:07:42;51.12;47.56;66.90;;
68599;Laerm;18038;50.166;18.908;2023-02-18T09:10:54;55.73;47.23;74.13;;
68599;Laerm;18038;50.166;18.908;2023-02-18T09:14:02;52.38;47.01;71.38;;
68599;Laerm;18038;50.166;18.908;2023-02-18T09:17:08;60.18;47.54;85.63;;
68599;Laerm;18038;50.166;18.908;2023-02-18T09:20:15;55.11;47.41;75.77;;
68599;Laerm;18038;50.166;18.908;2023-02-18T09:23:21;52.95;47.72;71.93;;
68599;Laerm;18038;50.166;18.908;2023-02-18T09:26:30;58.01;47.37;82.74;;
68599;Laerm;18038;50.166;18.908;2023-02-18T09:29:38;54.02;47.15;75.96;;
68599;Laerm;18038;50.166;18.908;2023-02-18T09:32:47;51.51;46.98;67.88;;
68599;Laerm;18038;50.166;18.908;2023-02-18T09:35:53;52.84;47.49;71.50;;
68599;Laerm;18038;50.166;18.908;2023-02-18T09:39:00;52.28;47.48;66.64;;
68599;Laerm;18038;50.166;18.908;2023-02-18T09:42:15;55.41;47.76;80.04;;
68599;Laerm;18038;50.166;18.908;2023-02-18T09:45:24;52.58;47.75;63.61;;
68599;Laerm;18038;50.166;18.908;2023-02-18T09:48:35;53.67;47.39;73.98;;
68599;Laerm;18038;50.166;18.908;2023-02-18T09:51:43;53.00;47.62;66.93;;
68599;Laerm;18038;50.166;18.908;2023-02-18T09:54:50;63.44;48.06;80.78;;
68599;Laerm;18038;50.166;18.908;2023-02-18T09:58:05;52.68;47.50;73.05;;
68599;Laerm;18038;50.166;18.908;2023-02-18T10:01:26;56.03;47.85;75.05;;
68599;Laerm;18038;50.166;18.908;2023-02-18T10:04:43;53.83;47.54;72.76;;
68599;Laerm;18038;50.166;18.908;2023-02-18T10:08:00;52.84;47.63;65.38;;
68599;Laerm;18038;50.166;18.908;2023-02-18T10:11:14;55.01;47.56;75.22;;
68599;Laerm;18038;50.166;18.908;2023-02-18T10:14:25;52.36;47.37;72.12;;
68599;Laerm;18038;50.166;18.908;2023-02-18T10:17:33;52.74;47.52;69.75;;
68599;Laerm;18038;50.166;18.908;2023-02-18T10:20:41;57.24;48.05;79.97;;
68599;Laerm;18038;50.166;18.908;2023-02-18T10:23:58;61.36;47.83;84.70;;
68599;Laerm;18038;50.166;18.908;2023-02-18T10:27:07;57.40;47.61;78.33;;
68599;Laerm;18038;50.166;18.908;2023-02-18T10:30:24;53.74;47.56;71.82;;
68599;Laerm;18038;50.166;18.908;2023-02-18T10:33:41;61.06;48.34;85.42;;
68599;Laerm;18038;50.166;18.908;2023-02-18T10:36:57;55.02;47.99;76.34;;
68599;Laerm;18038;50.166;18.908;2023-02-18T10:40:17;53.71;48.33;68.60;;
68599;Laerm;18038;50.166;18.908;2023-02-18T10:43:42;53.52;48.34;70.00;;
68599;Laerm;18038;50.166;18.908;2023-02-18T10:47:08;52.85;48.77;67.31;;
68599;Laerm;18038;50.166;18.908;2023-02-18T10:50:31;54.08;49.14;61.75;;
68599;Laerm;18038;50.166;18.908;2023-02-18T10:53:44;53.47;49.08;60.04;;
68599;Laerm;18038;50.166;18.908;2023-02-18T10:56:57;54.02;48.80;62.56;;
68599;Laerm;18038;50.166;18.908;2023-02-18T11:00:19;55.40;49.40;69.82;;
68599;Laerm;18038;50.166;18.908;2023-02-18T11:03:43;58.35;49.68;78.95;;
68599;Laerm;18038;50.166;18.908;2023-02-18T11:06:52;55.76;49.59;65.80;;
68599;Laerm;18038;50.166;18.908;2023-02-18T11:10:09;54.68;49.28;71.30;;
68599;Laerm;18038;50.166;18.908;2023-02-18T11:13:28;56.43;49.05;73.58;;
68599;Laerm;18038;50.166;18.908;2023-02-18T11:16:40;53.79;49.64;66.24;;
68599;Laerm;18038;50.166;18.908;2023-02-18T11:20:01;54.03;49.26;61.96;;
68599;Laerm;18038;50.166;18.908;2023-02-18T11:23:19;53.78;49.24;62.58;;
68599;Laerm;18038;50.166;18.908;2023-02-18T11:26:32;53.71;48.75;67.46;;
68599;Laerm;18038;50.166;18.908;2023-02-18T11:29:39;53.56;48.52;65.00;;
68599;Laerm;18038;50.166;18.908;2023-02-18T11:32:51;53.86;48.94;65.29;;
68599;Laerm;18038;50.166;18.908;2023-02-18T11:36:22;55.34;49.47;75.71;;
68599;Laerm;18038;50.166;18.908;2023-02-18T11:39:35;52.50;48.62;61.99;;
68599;Laerm;18038;50.166;18.908;2023-02-18T11:42:45;52.97;48.44;62.80;;
68599;Laerm;18038;50.166;18.908;2023-02-18T11:46:09;54.21;48.39;62.00;;
68599;Laerm;18038;50.166;18.908;2023-02-18T11:49:22;54.52;48.49;64.65;;
68599;Laerm;18038;50.166;18.908;2023-02-18T11:52:37;53.76;48.18;67.64;;
68599;Laerm;18038;50.166;18.908;2023-02-18T11:55:55;53.23;48.39;61.28;;
68599;Laerm;18038;50.166;18.908;2023-02-18T11:59:04;53.15;48.25;71.32;;
68599;Laerm;18038;50.166;18.908;2023-02-18T12:02:30;52.40;48.21;65.00;;
68599;Laerm;18038;50.166;18.908;2023-02-18T12:05:38;51.50;47.98;59.90;;
68599;Laerm;18038;50.166;18.908;2023-02-18T12:08:55;53.63;47.93;60.67;;
68599;Laerm;18038;50.166;18.908;2023-02-18T12:12:12;52.97;47.95;60.02;;
68599;Laerm;18038;50.166;18.908;2023-02-18T12:15:33;53.44;47.96;63.93;;
68599;Laerm;18038;50.166;18.908;2023-02-18T12:19:16;52.78;47.97;67.26;;
68599;Laerm;18038;50.166;18.908;2023-02-18T12:22:40;53.51;48.27;64.30;;
68599;Laerm;18038;50.166;18.908;2023-02-18T12:26:01;54.01;48.38;66.30;;
68599;Laerm;18038;50.166;18.908;2023-02-18T12:33:13;53.42;47.97;65.88;;
68599;Laerm;18038;50.166;18.908;2023-02-18T12:36:44;53.34;48.06;65.13;;
68599;Laerm;18038;50.166;18.908;2023-02-18T12:40:18;53.21;47.82;61.06;;
68599;Laerm;18038;50.166;18.908;2023-02-18T12:43:52;52.23;47.87;62.36;;
68599;Laerm;18038;50.166;18.908;2023-02-18T12:47:35;53.43;47.63;63.70;;
68599;Laerm;18038;50.166;18.908;2023-02-18T12:51:19;52.76;47.84;63.22;;
68599;Laerm;18038;50.166;18.908;2023-02-18T12:55:05;54.18;47.68;72.95;;
68599;Laerm;18038;50.166;18.908;2023-02-18T12:58:43;53.24;47.65;63.93;;
68599;Laerm;18038;50.166;18.908;2023-02-18T13:02:12;56.69;47.91;77.38;;
68599;Laerm;18038;50.166;18.908;2023-02-18T13:05:42;53.96;48.16;64.65;;
68599;Laerm;18038;50.166;18.908;2023-02-18T13:09:06;53.14;47.76;65.82;;
68599;Laerm;18038;50.166;18.908;2023-02-18T13:12:27;56.74;48.01;76.50;;
68599;Laerm;18038;50.166;18.908;2023-02-18T13:15:44;52.54;47.37;60.61;;
68599;Laerm;18038;50.166;18.908;2023-02-18T13:19:18;52.66;47.41;66.42;;
68599;Laerm;18038;50.166;18.908;2023-02-18T13:22:29;51.90;47.39;61.97;;
68599;Laerm;18038;50.166;18.908;2023-02-18T13:25:38;51.93;47.38;59.98;;
68599;Laerm;18038;50.166;18.908;2023-02-18T13:29:02;52.18;47.26;60.74;;
68599;Laerm;18038;50.166;18.908;2023-02-18T13:32:29;52.20;47.43;59.83;;
68599;Laerm;18038;50.166;18.908;2023-02-18T13:35:47;52.57;47.81;61.58;;
68599;Laerm;18038;50.166;18.908;2023-02-18T13:39:04;52.58;47.68;64.74;;
68599;Laerm;18038;50.166;18.908;2023-02-18T13:42:34;53.91;47.91;63.64;;
68599;Laerm;18038;50.166;18.908;2023-02-18T13:45:41;52.55;47.55;59.87;;
68599;Laerm;18038;50.166;18.908;2023-02-18T13:49:04;51.85;47.13;60.06;;
68599;Laerm;18038;50.166;18.908;2023-02-18T13:52:19;51.67;47.07;61.76;;
68599;Laerm;18038;50.166;18.908;2023-02-18T13:55:39;51.80;47.42;61.07;;
68599;Laerm;18038;50.166;18.908;2023-02-18T13:58:52;51.83;47.60;62.13;;
68599;Laerm;18038;50.166;18.908;2023-02-18T14:02:30;51.07;47.92;60.32;;
68599;Laerm;18038;50.166;18.908;2023-02-18T14:05:41;53.00;48.19;62.93;;
68599;Laerm;18038;50.166;18.908;2023-02-18T14:09:34;52.99;48.60;60.72;;
68599;Laerm;18038;50.166;18.908;2023-02-18T14:13:17;52.62;48.44;65.20;;
68599;Laerm;18038;50.166;18.908;2023-02-18T14:17:23;53.81;47.94;62.62;;
68599;Laerm;18038;50.166;18.908;2023-02-18T14:20:49;53.53;47.95;63.49;;
68599;Laerm;18038;50.166;18.908;2023-02-18T14:23:59;54.29;48.35;64.13;;
68599;Laerm;18038;50.166;18.908;2023-02-18T14:27:15;54.02;48.16;63.62;;
68599;Laerm;18038;50.166;18.908;2023-02-18T14:30:39;53.68;48.09;66.52;;
68599;Laerm;18038;50.166;18.908;2023-02-18T14:34:29;52.85;48.12;64.02;;
68599;Laerm;18038;50.166;18.908;2023-02-18T14:38:28;54.19;48.71;62.72;;
68599;Laerm;18038;50.166;18.908;2023-02-18T14:42:04;53.32;48.80;60.13;;
68599;Laerm;18038;50.166;18.908;2023-02-18T14:45:39;53.66;48.25;70.32;;
68599;Laerm;18038;50.166;18.908;2023-02-18T14:49:35;53.22;48.00;63.94;;
68599;Laerm;18038;50.166;18.908;2023-02-18T14:52:55;53.10;48.38;66.32;;
68599;Laerm;18038;50.166;18.908;2023-02-18T14:56:18;53.98;48.20;63.47;;
68599;Laerm;18038;50.166;18.908;2023-02-18T14:59:36;53.08;48.04;63.91;;
68599;Laerm;18038;50.166;18.908;2023-02-18T15:02:49;53.11;48.49;71.13;;
68599;Laerm;18038;50.166;18.908;2023-02-18T15:05:55;52.90;48.40;67.70;;
68599;Laerm;18038;50.166;18.908;2023-02-18T15:09:19;54.43;48.38;69.60;;
68599;Laerm;18038;50.166;18.908;2023-02-18T15:12:26;56.10;48.74;72.95;;
68599;Laerm;18038;50.166;18.908;2023-02-18T15:15:36;55.94;49.59;71.42;;
68599;Laerm;18038;50.166;18.908;2023-02-18T15:18:51;56.40;48.62;76.65;;
68599;Laerm;18038;50.166;18.908;2023-02-18T15:21:59;55.43;48.54;69.25;;
68599;Laerm;18038;50.166;18.908;2023-02-18T15:25:12;53.86;49.09;66.66;;
68599;Laerm;18038;50.166;18.908;2023-02-18T15:28:25;54.75;48.83;72.09;;
68599;Laerm;18038;50.166;18.908;2023-02-18T15:31:37;55.64;49.53;73.44;;
68599;Laerm;18038;50.166;18.908;2023-02-18T15:34:51;57.32;49.55;70.66;;
68599;Laerm;18038;50.166;18.908;2023-02-18T15:38:00;55.89;49.05;74.89;;
68599;Laerm;18038;50.166;18.908;2023-02-18T15:41:13;55.64;49.42;68.61;;
68599;Laerm;18038;50.166;18.908;2023-02-18T15:44:24;58.04;49.25;81.23;;
68599;Laerm;18038;50.166;18.908;2023-02-18T15:47:33;59.01;49.56;78.15;;
68599;Laerm;18038;50.166;18.908;2023-02-18T15:50:55;60.86;49.30;79.62;;
68599;Laerm;18038;50.166;18.908;2023-02-18T15:54:21;62.34;49.59;80.24;;
68599;Laerm;18038;50.166;18.908;2023-02-18T15:57:35;63.37;49.59;85.40;;
68599;Laerm;18038;50.166;18.908;2023-02-18T16:00:49;58.39;49.41;79.85;;
68599;Laerm;18038;50.166;18.908;2023-02-18T16:03:56;63.62;49.44;84.00;;
68599;Laerm;18038;50.166;18.908;2023-02-18T16:07:22;62.14;49.88;79.03;;
68599;Laerm;18038;50.166;18.908;2023-02-18T16:10:47;56.21;49.35;74.36;;
68599;Laerm;18038;50.166;18.908;2023-02-18T16:13:58;55.77;49.28;74.53;;
68599;Laerm;18038;50.166;18.908;2023-02-18T16:17:15;58.57;49.12;77.06;;
68599;Laerm;18038;50.166;18.908;2023-02-18T16:20:30;56.73;48.35;75.17;;
68599;Laerm;18038;50.166;18.908;2023-02-18T16:23:43;55.48;48.62;70.74;;
68599;Laerm;18038;50.166;18.908;2023-02-18T16:26:56;57.54;48.56;80.16;;
68599;Laerm;18038;50.166;18.908;2023-02-18T16:30:15;55.27;48.52;79.04;;
68599;Laerm;18038;50.166;18.908;2023-02-18T16:33:22;53.78;48.05;75.17;;
68599;Laerm;18038;50.166;18.908;2023-02-18T16:36:28;52.89;48.02;66.27;;
68599;Laerm;18038;50.166;18.908;2023-02-18T16:39:35;54.78;47.96;79.13;;
68599;Laerm;18038;50.166;18.908;2023-02-18T16:42:42;57.37;48.38;73.17;;
68599;Laerm;18038;50.166;18.908;2023-02-18T16:45:54;57.64;48.75;72.17;;
68599;Laerm;18038;50.166;18.908;2023-02-18T16:49:01;57.04;47.87;82.08;;
68599;Laerm;18038;50.166;18.908;2023-02-18T16:52:14;55.83;48.22;73.37;;
68599;Laerm;18038;50.166;18.908;2023-02-18T16:55:24;53.11;48.56;68.69;;
68599;Laerm;18038;50.166;18.908;2023-02-18T16:58:31;53.36;48.54;66.32;;
68599;Laerm;18038;50.166;18.908;2023-02-18T17:01:44;53.79;48.83;67.02;;
68599;Laerm;18038;50.166;18.908;2023-02-18T17:04:51;53.89;48.80;68.00;;
68599;Laerm;18038;50.166;18.908;2023-02-18T17:08:15;54.63;48.36;74.70;;
68599;Laerm;18038;50.166;18.908;2023-02-18T17:11:28;52.00;47.81;59.19;;
68599;Laerm;18038;50.166;18.908;2023-02-18T17:14:34;53.23;47.68;62.19;;
68599;Laerm;18038;50.166;18.908;2023-02-18T17:17:44;52.87;48.23;59.91;;
68599;Laerm;18038;50.166;18.908;2023-02-18T17:20:51;52.99;48.01;71.68;;
68599;Laerm;18038;50.166;18.908;2023-02-18T17:23:59;54.23;47.86;76.95;;
68599;Laerm;18038;50.166;18.908;2023-02-18T17:27:06;50.12;47.52;58.16;;
68599;Laerm;18038;50.166;18.908;2023-02-18T17:30:14;53.07;48.01;71.70;;
68599;Laerm;18038;50.166;18.908;2023-02-18T17:33:24;52.48;47.79;70.08;;
68599;Laerm;18038;50.166;18.908;2023-02-18T17:36:31;52.75;48.03;69.96;;
68599;Laerm;18038;50.166;18.908;2023-02-18T17:39:38;53.22;48.01;63.03;;
68599;Laerm;18038;50.166;18.908;2023-02-18T17:42:45;54.10;47.76;74.65;;
68599;Laerm;18038;50.166;18.908;2023-02-18T17:45:54;56.55;48.13;76.69;;
68599;Laerm;18038;50.166;18.908;2023-02-18T17:49:03;52.05;47.85;64.08;;
68599;Laerm;18038;50.166;18.908;2023-02-18T17:52:29;52.40;47.91;62.95;;
68599;Laerm;18038;50.166;18.908;2023-02-18T17:55:38;53.29;48.13;71.91;;